createdAt,value
2022-10-19T00:00:00.387Z,0.30
2022-10-19T00:02:46.141Z,0.40
2022-10-19T00:05:31.879Z,0.40
2022-10-19T00:08:17.602Z,0.30
2022-10-19T00:11:03.446Z,0.30
2022-10-19T00:13:49.435Z,0.40
2022-10-19T00:16:37.707Z,0.30
2022-10-19T00:19:25.911Z,0.50
2022-10-19T00:22:13.919Z,0.30
2022-10-19T00:24:59.768Z,0.50
2022-10-19T00:27:45.488Z,0.40
2022-10-19T00:30:31.462Z,0.30
2022-10-19T00:33:23.644Z,0.50
2022-10-19T00:36:26.146Z,0.30
2022-10-19T00:39:14.458Z,0.38
2022-10-19T00:42:00.355Z,0.30
2022-10-19T00:44:49.299Z,0.40
2022-10-19T00:47:35.898Z,0.40
2022-10-19T00:50:22.659Z,0.30
2022-10-19T00:53:09.426Z,0.32
2022-10-19T00:55:55.926Z,0.30
2022-10-19T00:58:43.631Z,0.35
2022-10-19T01:01:29.615Z,0.40
2022-10-19T01:04:15.803Z,0.40
2022-10-19T01:07:03.598Z,0.30
2022-10-19T01:09:49.242Z,0.40
2022-10-19T01:12:52.390Z,0.30
2022-10-19T01:15:44.528Z,0.30
2022-10-19T01:18:34.220Z,0.40
2022-10-19T01:21:29.469Z,0.40
2022-10-19T01:24:42.199Z,0.40
2022-10-19T01:27:48.003Z,0.40
2022-10-19T01:30:36.741Z,0.30
2022-10-19T01:33:35.714Z,0.40
2022-10-19T01:36:29.248Z,0.40
2022-10-19T01:39:28.324Z,0.40
2022-10-19T01:42:14.054Z,0.40
2022-10-19T01:44:59.737Z,0.40
2022-10-19T01:47:50.473Z,0.50
2022-10-19T01:50:43.705Z,0.30
2022-10-19T01:53:33.470Z,0.80
2022-10-19T01:56:22.327Z,1.17
2022-10-19T01:59:09.780Z,1.60
2022-10-19T02:01:55.995Z,1.60
2022-10-19T02:04:42.179Z,1.50
2022-10-19T02:07:28.230Z,1.20
2022-10-19T02:13:05.577Z,1.20
2022-10-19T02:15:53.361Z,1.20
2022-10-19T02:18:42.269Z,1.20
2022-10-19T02:21:28.375Z,1.00
2022-10-19T02:24:14.343Z,0.70
2022-10-19T02:27:01.790Z,0.95
2022-10-19T02:29:47.589Z,0.70
2022-10-19T02:32:33.661Z,0.95
2022-10-19T02:35:19.607Z,0.80
2022-10-19T02:38:06.248Z,0.90
2022-10-19T02:41:05.520Z,0.90
2022-10-19T02:43:56.261Z,0.80
2022-10-19T02:46:58.792Z,0.70
2022-10-19T02:49:45.370Z,0.73
2022-10-19T02:52:31.121Z,0.63
2022-10-19T02:55:16.995Z,0.60
2022-10-19T02:58:03.066Z,0.60
2022-10-19T03:00:49.086Z,0.77
2022-10-19T03:03:35.157Z,0.70
2022-10-19T03:06:20.777Z,0.65
2022-10-19T03:09:06.721Z,0.80
2022-10-19T03:11:52.790Z,0.60
2022-10-19T03:14:38.795Z,0.60
2022-10-19T03:17:24.478Z,0.63
2022-10-19T03:20:11.095Z,0.60
2022-10-19T03:22:57.118Z,0.90
2022-10-19T03:25:42.845Z,1.20
2022-10-19T03:28:29.129Z,1.05
2022-10-19T03:31:15.238Z,1.10
2022-10-19T03:34:02.107Z,0.85
2022-10-19T03:36:47.715Z,0.93
2022-10-19T03:39:33.438Z,1.00
2022-10-19T03:42:19.490Z,0.70
2022-10-19T03:45:05.790Z,0.90
2022-10-19T03:47:52.208Z,1.23
2022-10-19T03:50:38.299Z,1.08
2022-10-19T03:53:24.005Z,0.80
2022-10-19T03:56:18.144Z,0.70
2022-10-19T03:59:05.428Z,0.63
2022-10-19T04:01:51.385Z,0.93
2022-10-19T04:04:37.213Z,0.80
2022-10-19T04:07:23.105Z,0.80
2022-10-19T04:10:08.995Z,0.73
2022-10-19T04:12:54.898Z,0.80
2022-10-19T04:15:40.554Z,0.75
2022-10-19T04:18:26.413Z,0.60
2022-10-19T04:21:32.121Z,0.70
2022-10-19T04:24:19.017Z,0.60
2022-10-19T04:27:04.705Z,0.68
2022-10-19T04:29:50.416Z,0.80
2022-10-19T04:32:36.117Z,0.60
2022-10-19T04:35:21.930Z,1.00
2022-10-19T04:38:07.594Z,1.05
2022-10-19T04:40:53.306Z,0.90
2022-10-19T04:43:39.377Z,0.82
2022-10-19T04:46:26.250Z,1.10
2022-10-19T04:49:14.147Z,1.08
2022-10-19T04:52:03.529Z,0.93
2022-10-19T04:54:49.342Z,0.98
2022-10-19T04:57:35.353Z,1.02
2022-10-19T05:00:21.622Z,0.93
2022-10-19T05:03:07.365Z,0.80
2022-10-19T05:05:52.999Z,0.73
2022-10-19T05:08:39.225Z,0.80
2022-10-19T05:11:25.485Z,0.80
2022-10-19T05:14:11.328Z,0.80
2022-10-19T05:16:56.935Z,0.85
2022-10-19T05:19:42.885Z,0.70
2022-10-19T05:22:28.654Z,0.75
2022-10-19T05:25:14.469Z,0.82
2022-10-19T05:28:00.208Z,0.70
2022-10-19T05:30:48.948Z,0.70
2022-10-19T05:33:35.512Z,0.60
2022-10-19T05:36:28.017Z,0.77
2022-10-19T05:39:16.970Z,0.90
2022-10-19T05:42:02.765Z,1.08
2022-10-19T05:44:48.709Z,1.02
2022-10-19T05:47:34.962Z,1.20
2022-10-19T05:50:24.596Z,1.23
2022-10-19T05:53:10.365Z,1.23
2022-10-19T05:55:56.265Z,0.90
2022-10-19T05:58:42.498Z,1.10
2022-10-19T06:01:29.754Z,1.00
2022-10-19T06:07:03.096Z,1.10
2022-10-19T06:09:48.971Z,1.13
2022-10-19T06:12:34.978Z,0.90
2022-10-19T06:15:20.672Z,0.80
2022-10-19T06:18:07.901Z,0.70
2022-10-19T06:20:54.818Z,0.90
2022-10-19T06:26:34.396Z,0.82
2022-10-19T06:29:20.050Z,0.80
2022-10-19T06:32:06.032Z,0.80
2022-10-19T06:34:55.738Z,1.10
2022-10-19T06:37:42.999Z,1.00
2022-10-19T06:40:28.832Z,1.05
2022-10-19T06:43:15.869Z,1.00
2022-10-19T06:46:06.420Z,1.02
2022-10-19T06:49:00.024Z,1.00
2022-10-19T06:51:45.933Z,1.00
2022-10-19T06:54:31.780Z,0.98
2022-10-19T06:57:17.994Z,0.80
2022-10-19T07:00:05.731Z,0.80
2022-10-19T07:02:51.620Z,0.90
2022-10-19T07:05:37.396Z,0.80
2022-10-19T07:08:23.282Z,0.73
2022-10-19T07:11:11.984Z,0.70
2022-10-19T07:13:57.979Z,0.95
2022-10-19T07:16:43.565Z,1.40
2022-10-19T07:19:29.264Z,1.98
2022-10-19T07:22:20.358Z,1.20
2022-10-19T07:25:09.975Z,1.35
2022-10-19T07:27:56.205Z,1.20
2022-10-19T07:30:41.974Z,1.35
2022-10-19T07:33:29.023Z,1.50
2022-10-19T07:36:15.119Z,1.38
2022-10-19T07:39:02.348Z,1.52
2022-10-19T07:41:48.370Z,1.80
2022-10-19T07:44:34.119Z,1.48
2022-10-19T07:47:20.314Z,1.55
2022-10-19T07:50:06.502Z,1.80
2022-10-19T07:52:52.853Z,1.52
2022-10-19T07:55:38.871Z,1.92
2022-10-19T07:58:24.461Z,2.10
2022-10-19T08:01:18.852Z,1.92
2022-10-19T08:07:10.929Z,1.35
2022-10-19T08:09:57.003Z,1.80
2022-10-19T08:12:43.092Z,1.70
2022-10-19T08:15:30.212Z,1.42
2022-10-19T08:18:19.417Z,1.45
2022-10-19T08:21:05.406Z,1.20
2022-10-19T08:23:51.517Z,1.50
2022-10-19T08:26:38.963Z,1.17
2022-10-19T08:29:26.597Z,1.20
2022-10-19T08:32:14.952Z,1.15
2022-10-19T08:35:00.710Z,1.30
2022-10-19T08:37:46.742Z,1.33
2022-10-19T08:40:32.777Z,1.42
2022-10-19T08:43:32.958Z,1.30
2022-10-19T08:46:53.892Z,1.75
2022-10-19T08:49:39.854Z,1.70
2022-10-19T08:52:41.908Z,1.80
2022-10-19T08:56:00.869Z,1.10
2022-10-19T08:59:06.341Z,1.13
2022-10-19T09:01:58.520Z,1.00
2022-10-19T09:05:10.071Z,1.02
2022-10-19T09:07:55.999Z,0.88
2022-10-19T09:10:44.589Z,1.00
2022-10-19T09:14:04.356Z,0.80
2022-10-19T09:17:01.853Z,0.90
2022-10-19T09:19:47.744Z,0.60
2022-10-19T09:22:35.274Z,0.80
2022-10-19T09:25:22.683Z,0.70
2022-10-19T09:28:21.761Z,0.90
2022-10-19T09:31:13.641Z,0.98
2022-10-19T09:34:12.225Z,0.70
2022-10-19T09:36:59.240Z,1.00
2022-10-19T09:39:52.344Z,0.70
2022-10-19T09:42:42.396Z,0.50
2022-10-19T09:45:46.458Z,0.80
2022-10-19T09:48:52.723Z,0.60
2022-10-19T09:51:53.016Z,0.68
2022-10-19T09:54:39.622Z,0.60
2022-10-19T09:57:25.972Z,1.13
2022-10-19T10:00:24.390Z,1.00
2022-10-19T10:03:27.789Z,1.30
2022-10-19T10:06:17.613Z,1.10
2022-10-19T10:09:03.933Z,1.10
2022-10-19T10:11:51.104Z,1.02
2022-10-19T10:14:40.929Z,1.08
2022-10-19T10:17:30.587Z,0.85
2022-10-19T10:20:23.621Z,0.80
2022-10-19T10:23:24.810Z,0.80
2022-10-19T10:26:20.012Z,0.90
2022-10-19T10:29:24.281Z,0.60
2022-10-19T10:35:02.123Z,0.65
2022-10-19T10:37:48.608Z,0.70
2022-10-19T10:40:34.747Z,0.90
2022-10-19T10:43:30.172Z,0.90
2022-10-19T10:46:21.265Z,0.80
2022-10-19T10:49:08.797Z,0.73
2022-10-19T10:52:00.766Z,0.68
2022-10-19T10:55:21.174Z,1.00
2022-10-19T10:58:18.769Z,1.00
2022-10-19T11:01:08.050Z,0.63
2022-10-19T11:04:11.972Z,0.80
2022-10-19T11:07:20.707Z,0.80
2022-10-19T11:10:49.941Z,0.80
2022-10-19T11:13:56.098Z,0.98
2022-10-19T11:16:47.067Z,1.20
2022-10-19T11:19:41.254Z,0.98
2022-10-19T11:22:35.327Z,1.00
2022-10-19T11:25:26.808Z,1.00
2022-10-19T11:28:55.065Z,1.00
2022-10-19T11:31:45.950Z,1.08
2022-10-19T11:34:37.898Z,1.10
2022-10-19T11:38:18.215Z,1.05
2022-10-19T11:41:17.421Z,1.08
2022-10-19T11:44:22.712Z,0.90
2022-10-19T11:47:34.010Z,1.00
2022-10-19T11:50:32.471Z,0.82
2022-10-19T11:53:18.014Z,0.85
2022-10-19T11:56:08.537Z,1.00
2022-10-19T11:59:14.892Z,1.10
2022-10-19T12:02:19.472Z,1.00
2022-10-19T12:05:17.801Z,0.82
2022-10-19T12:11:11.560Z,0.70
2022-10-19T12:14:03.425Z,0.80
2022-10-19T12:16:53.390Z,0.82
2022-10-19T12:19:50.686Z,0.90
2022-10-19T12:22:37.767Z,1.00
2022-10-19T12:25:23.894Z,0.80
2022-10-19T12:28:14.421Z,0.60
2022-10-19T12:31:01.900Z,0.70
2022-10-19T12:33:56.810Z,1.20
2022-10-19T12:37:07.121Z,1.48
2022-10-19T12:40:05.262Z,1.30
2022-10-19T12:43:16.748Z,1.17
2022-10-19T12:46:15.387Z,1.00
2022-10-19T12:49:27.823Z,1.05
2022-10-19T12:52:15.454Z,0.93
2022-10-19T12:55:16.747Z,0.90
2022-10-19T12:58:17.117Z,1.00
2022-10-19T13:01:05.471Z,0.80
2022-10-19T13:04:06.732Z,0.82
2022-10-19T13:07:08.232Z,0.73
2022-10-19T13:10:01.183Z,0.70
2022-10-19T13:12:48.184Z,0.90
2022-10-19T13:15:36.936Z,0.80
2022-10-19T13:19:03.374Z,0.70
2022-10-19T13:22:35.709Z,0.70
2022-10-19T13:26:12.300Z,0.65
2022-10-19T13:28:58.259Z,0.88
2022-10-19T13:31:44.058Z,0.88
2022-10-19T13:34:29.747Z,0.90
2022-10-19T13:37:18.349Z,0.90
2022-10-19T13:40:23.572Z,0.82
2022-10-19T13:43:24.993Z,0.90
2022-10-19T13:46:20.435Z,1.60
2022-10-19T13:49:27.763Z,1.50
2022-10-19T13:53:01.260Z,1.60
2022-10-19T13:56:00.264Z,1.48
2022-10-19T13:59:11.255Z,1.30
2022-10-19T14:01:56.991Z,1.30
2022-10-19T14:04:57.100Z,1.27
2022-10-19T14:07:48.895Z,1.27
2022-10-19T14:10:56.353Z,1.20
2022-10-19T14:13:41.498Z,1.05
2022-10-19T14:16:27.463Z,1.20
2022-10-19T14:19:14.621Z,1.20
2022-10-19T14:22:02.869Z,1.27
2022-10-19T14:24:49.120Z,1.05
2022-10-19T14:27:35.624Z,1.00
2022-10-19T14:30:35.487Z,0.82
2022-10-19T14:33:21.813Z,0.90
2022-10-19T14:36:15.017Z,0.90
2022-10-19T14:39:01.429Z,0.90
2022-10-19T14:41:47.193Z,0.65
2022-10-19T14:44:35.234Z,0.73
2022-10-19T14:47:30.404Z,0.70
2022-10-19T14:50:16.509Z,0.70
2022-10-19T14:53:24.344Z,0.60
2022-10-19T14:56:19.196Z,0.70
2022-10-19T14:59:16.708Z,0.70
2022-10-19T15:02:10.137Z,0.75
2022-10-19T15:04:58.564Z,0.63
2022-10-19T15:07:44.417Z,0.80
2022-10-19T15:10:41.602Z,0.82
2022-10-19T15:13:32.727Z,0.85
2022-10-19T15:16:44.625Z,0.93
2022-10-19T15:19:32.675Z,0.90
2022-10-19T15:22:20.121Z,0.90
2022-10-19T15:25:08.807Z,0.98
2022-10-19T15:27:54.663Z,1.00
2022-10-19T15:30:40.561Z,0.98
2022-10-19T15:33:26.617Z,1.42
2022-10-19T15:36:19.733Z,1.00
2022-10-19T15:39:24.686Z,1.00
2022-10-19T15:42:24.384Z,0.98
2022-10-19T15:45:29.053Z,0.85
2022-10-19T15:48:24.203Z,1.08
2022-10-19T15:51:25.436Z,0.90
2022-10-19T15:54:12.379Z,1.02
2022-10-19T15:56:58.091Z,0.93
2022-10-19T15:59:43.912Z,0.93
2022-10-19T16:02:29.960Z,1.40
2022-10-19T16:05:15.964Z,1.30
2022-10-19T16:08:01.779Z,1.30
2022-10-19T16:10:47.588Z,1.20
2022-10-19T16:13:33.644Z,1.17
2022-10-19T16:16:25.549Z,1.20
2022-10-19T16:19:11.174Z,1.08
2022-10-19T16:21:56.933Z,1.20
2022-10-19T16:24:42.748Z,1.25
2022-10-19T16:27:28.418Z,1.05
2022-10-19T16:30:14.333Z,1.00
2022-10-19T16:33:00.410Z,1.00
2022-10-19T16:35:46.180Z,1.20
2022-10-19T16:38:31.898Z,1.42
2022-10-19T16:41:17.681Z,1.90
2022-10-19T16:44:03.670Z,2.08
2022-10-19T16:46:49.480Z,2.17
2022-10-19T16:49:35.629Z,2.00
2022-10-19T16:52:21.331Z,1.75
2022-10-19T16:55:07.518Z,2.15
2022-10-19T16:57:53.461Z,1.90
2022-10-19T17:00:39.589Z,2.00
2022-10-19T17:03:25.600Z,1.55
2022-10-19T17:06:11.772Z,1.50
2022-10-19T17:12:05.469Z,1.52
2022-10-19T17:14:51.425Z,1.60
2022-10-19T17:17:37.812Z,1.30
2022-10-19T17:20:24.030Z,1.63
2022-10-19T17:23:10.417Z,1.20
2022-10-19T17:25:56.258Z,1.70
2022-10-19T17:28:43.631Z,1.77
2022-10-19T17:31:30.347Z,1.52
2022-10-19T17:34:17.518Z,1.80
2022-10-19T17:37:03.517Z,1.63
2022-10-19T17:39:51.092Z,1.60
2022-10-19T17:42:37.145Z,1.65
2022-10-19T17:45:23.386Z,1.30
2022-10-19T17:48:09.356Z,1.50
2022-10-19T17:51:03.873Z,1.00
2022-10-19T17:53:51.978Z,1.10
2022-10-19T17:56:38.444Z,1.40
2022-10-19T17:59:34.600Z,1.20
2022-10-19T18:02:22.783Z,1.20
2022-10-19T18:05:09.473Z,0.95
2022-10-19T18:07:55.375Z,1.27
2022-10-19T18:10:41.903Z,1.40
2022-10-19T18:13:28.824Z,1.23
2022-10-19T18:16:15.994Z,1.20
2022-10-19T18:19:03.058Z,1.10
2022-10-19T18:21:49.247Z,1.00
2022-10-19T18:24:35.047Z,1.33
2022-10-19T18:27:20.973Z,1.83
2022-10-19T18:30:07.350Z,1.08
2022-10-19T18:32:56.217Z,1.70
2022-10-19T18:35:42.389Z,1.55
2022-10-19T18:38:28.479Z,1.80
2022-10-19T18:44:06.882Z,1.65
2022-10-19T18:46:52.755Z,2.10
2022-10-19T18:49:38.509Z,1.77
2022-10-19T18:52:24.479Z,1.67
2022-10-19T18:55:10.504Z,1.40
2022-10-19T18:57:56.439Z,1.23
2022-10-19T19:00:45.614Z,1.70
2022-10-19T19:03:32.365Z,2.00
2022-10-19T19:06:25.644Z,1.50
2022-10-19T19:09:13.167Z,1.38
2022-10-19T19:11:59.502Z,1.40
2022-10-19T19:14:45.734Z,1.20
2022-10-19T19:17:31.425Z,1.30
2022-10-19T19:20:17.211Z,0.90
2022-10-19T19:23:03.190Z,1.05
2022-10-19T19:25:49.160Z,1.70
2022-10-19T19:28:37.784Z,1.40
2022-10-19T19:31:27.142Z,1.20
2022-10-19T19:34:13.366Z,1.10
2022-10-19T19:36:59.446Z,1.00
2022-10-19T19:39:45.389Z,0.80
2022-10-19T19:42:31.452Z,1.10
2022-10-19T19:45:17.174Z,1.13
2022-10-19T19:48:03.160Z,1.20
2022-10-19T19:50:49.462Z,0.80
2022-10-19T19:53:36.683Z,0.98
2022-10-19T19:56:22.817Z,0.75
2022-10-19T19:59:11.205Z,1.13
2022-10-19T20:01:57.179Z,1.30
2022-10-19T20:04:43.234Z,0.90
2022-10-19T20:07:29.596Z,1.27
2022-10-19T20:10:16.261Z,0.82
2022-10-19T20:13:02.319Z,1.10
2022-10-19T20:15:48.043Z,1.10
2022-10-19T20:18:34.012Z,1.15
2022-10-19T20:21:23.649Z,1.08
2022-10-19T20:24:09.991Z,1.25
2022-10-19T20:26:57.103Z,1.15
2022-10-19T20:29:43.379Z,1.10
2022-10-19T20:32:29.920Z,1.10
2022-10-19T20:35:16.154Z,1.05
2022-10-19T20:38:03.847Z,0.95
2022-10-19T20:40:49.827Z,0.85
2022-10-19T20:43:37.119Z,0.70
2022-10-19T20:46:26.330Z,0.90
2022-10-19T20:49:12.770Z,1.02
2022-10-19T20:51:58.917Z,1.05
2022-10-19T20:54:45.051Z,1.13
2022-10-19T20:57:31.064Z,1.05
2022-10-19T21:00:17.252Z,1.10
2022-10-19T21:03:03.470Z,1.10
2022-10-19T21:05:49.449Z,1.00
2022-10-19T21:08:36.234Z,1.33
2022-10-19T21:11:27.606Z,1.08
2022-10-19T21:14:15.572Z,0.75
2022-10-19T21:17:01.561Z,0.90
2022-10-19T21:19:47.397Z,0.70
2022-10-19T21:22:39.064Z,1.00
2022-10-19T21:25:25.298Z,0.90
2022-10-19T21:28:11.118Z,0.90
2022-10-19T21:30:57.070Z,0.70
2022-10-19T21:33:43.395Z,0.63
2022-10-19T21:36:30.220Z,0.75
2022-10-19T21:39:16.694Z,0.70
2022-10-19T21:42:02.731Z,0.45
2022-10-19T21:44:51.419Z,0.90
2022-10-19T21:47:40.113Z,0.90
2022-10-19T21:50:26.084Z,0.80
2022-10-19T21:53:12.077Z,0.98
2022-10-19T21:55:59.482Z,0.82
2022-10-19T21:58:50.096Z,0.70
2022-10-19T22:01:40.157Z,0.68
2022-10-19T22:04:27.435Z,0.70
2022-10-19T22:07:13.420Z,0.80
2022-10-19T22:09:59.130Z,0.65
2022-10-19T22:12:44.963Z,0.60
2022-10-19T22:15:30.849Z,0.60
2022-10-19T22:18:16.481Z,0.50
2022-10-19T22:21:08.488Z,0.70
2022-10-19T22:24:00.456Z,0.70
2022-10-19T22:26:48.145Z,0.45
2022-10-19T22:29:34.231Z,0.73
2022-10-19T22:32:22.030Z,0.60
2022-10-19T22:35:08.004Z,0.60
2022-10-19T22:37:53.951Z,0.68
2022-10-19T22:40:39.547Z,0.40
2022-10-19T22:43:25.387Z,0.50
2022-10-19T22:46:11.178Z,0.40
2022-10-19T22:48:56.883Z,0.60
2022-10-19T22:51:42.542Z,0.40
2022-10-19T22:54:28.246Z,0.40
2022-10-19T22:57:14.219Z,0.40
2022-10-19T23:00:00.275Z,0.40
2022-10-19T23:02:46.049Z,0.50
2022-10-19T23:05:32.253Z,0.40
2022-10-19T23:08:18.199Z,0.50
2022-10-19T23:11:04.200Z,0.30
2022-10-19T23:13:50.317Z,0.40
2022-10-19T23:16:36.170Z,0.40
2022-10-19T23:19:22.090Z,0.30
2022-10-19T23:22:07.929Z,0.22
2022-10-19T23:24:53.730Z,0.30
2022-10-19T23:27:39.653Z,0.40
2022-10-19T23:30:25.502Z,0.30
2022-10-19T23:33:17.028Z,0.32
2022-10-19T23:36:08.366Z,0.40
2022-10-19T23:38:55.298Z,0.40
2022-10-19T23:41:41.303Z,0.40
2022-10-19T23:44:26.990Z,0.40
2022-10-19T23:47:12.843Z,0.50
2022-10-19T23:49:58.485Z,0.57
2022-10-19T23:52:44.392Z,0.40
2022-10-19T23:55:30.230Z,0.40
2022-10-19T23:58:16.096Z,0.40
